Time;durP1;ratioP1;P1;durP2;ratioP2;P2;SDS_P1;SDS_P2;PMS_P1;PMS_P2;Temp;Humidity;BMP_temperature;BMP_pressure;BME280_temperature;BME280_humidity;BME280_pressure;Samples;Min_cycle;Max_cycle;Signal;HPM_P1;HPM_P2
2021/07/23 00:01:11;;;;;;;2.60;0.77;;;;;;;;;;4992192;28;20025;-70
2021/07/23 00:03:39;;;;;;;2.25;1.05;;;;;;;;;;5007837;28;20091;-71
2021/07/23 00:06:06;;;;;;;2.53;0.60;;;;;;;;;;5009426;28;20026;-70
2021/07/23 00:08:33;;;;;;;4.28;0.50;;;;;;;;;;4991851;28;20042;-70
2021/07/23 00:11:01;;;;;;;2.83;0.90;;;;;;;;;;5004023;28;20046;-70
2021/07/23 00:13:28;;;;;;;1.50;0.60;;;;;;;;;;5009140;28;20030;-69
2021/07/23 00:15:55;;;;;;;3.70;0.60;;;;;;;;;;5007053;28;20041;-70
2021/07/23 00:18:22;;;;;;;1.42;0.63;;;;;;;;;;4991172;28;20084;-71
2021/07/23 00:20:49;;;;;;;3.25;0.50;;;;;;;;;;4990150;28;20037;-72
2021/07/23 00:23:16;;;;;;;2.78;0.60;;;;;;;;;;5005613;28;20037;-70
2021/07/23 00:25:43;;;;;;;2.85;0.40;;;;;;;;;;5006421;28;20053;-72
2021/07/23 00:28:11;;;;;;;3.05;1.25;;;;;;;;;;5005707;28;20497;-72
2021/07/23 00:30:38;;;;;;;3.15;0.80;;;;;;;;;;5008328;28;20398;-71
2021/07/23 00:33:05;;;;;;;3.50;0.95;;;;;;;;;;5007799;28;20030;-72
2021/07/23 00:35:32;;;;;;;0.85;0.70;;;;;;;;;;5007867;28;20108;-70
2021/07/23 00:37:59;;;;;;;3.20;0.77;;;;;;;;;;4991319;28;20033;-71
2021/07/23 00:40:27;;;;;;;3.00;0.57;;;;;;;;;;4989583;28;20527;-70
2021/07/23 00:42:54;;;;;;;1.98;0.47;;;;;;;;;;5008262;28;20032;-72
2021/07/23 00:45:21;;;;;;;1.50;0.50;;;;;;;;;;5009571;28;20651;-70
2021/07/23 00:47:50;;;;;;;1.73;0.50;;;;;;;;;;5009962;28;20483;-69
2021/07/23 00:50:17;;;;;;;0.47;0.35;;;;;;;;;;5006855;28;20034;-71
2021/07/23 00:52:45;;;;;;;3.33;1.00;;;;;;;;;;5006539;28;20030;-71
2021/07/23 00:55:12;;;;;;;2.53;0.50;;;;;;;;;;4992609;28;20025;-71
2021/07/23 00:57:40;;;;;;;2.05;0.50;;;;;;;;;;5007974;28;20068;-70
2021/07/23 01:00:07;;;;;;;1.50;0.80;;;;;;;;;;4991988;28;20487;-71
2021/07/23 01:02:35;;;;;;;2.63;0.98;;;;;;;;;;5012062;28;20034;-70
2021/07/23 01:05:02;;;;;;;1.20;0.47;;;;;;;;;;4991733;28;20580;-70
2021/07/23 01:07:29;;;;;;;1.70;0.60;;;;;;;;;;4989631;28;20495;-72
2021/07/23 01:09:56;;;;;;;1.33;0.43;;;;;;;;;;5007838;28;20053;-74
2021/07/23 01:12:23;;;;;;;0.93;0.55;;;;;;;;;;5009920;28;20025;-75
2021/07/23 01:14:50;;;;;;;0.88;0.50;;;;;;;;;;4992723;28;20037;-72
2021/07/23 01:17:17;;;;;;;2.40;0.70;;;;;;;;;;5010245;28;20168;-73
2021/07/23 01:19:52;;;;;;;1.65;0.38;;;;;;;;;;5011719;28;20523;-73
2021/07/23 01:22:27;;;;;;;1.77;0.55;;;;;;;;;;4992777;28;20034;-73
2021/07/23 01:24:55;;;;;;;1.23;0.50;;;;;;;;;;4996443;28;20506;-75
2021/07/23 01:27:23;;;;;;;2.38;0.47;;;;;;;;;;5013921;28;20112;-72
2021/07/23 01:29:50;;;;;;;1.70;0.43;;;;;;;;;;5015588;28;20022;-74
2021/07/23 01:32:17;;;;;;;1.58;0.38;;;;;;;;;;4997078;28;20026;-74
2021/07/23 01:34:45;;;;;;;1.48;0.50;;;;;;;;;;4998065;28;20033;-74
2021/07/23 01:37:12;;;;;;;2.03;0.30;;;;;;;;;;5014078;28;20470;-73
2021/07/23 01:39:40;;;;;;;0.88;0.40;;;;;;;;;;4998281;28;20117;-72
2021/07/23 01:42:07;;;;;;;1.30;0.43;;;;;;;;;;4995857;28;20036;-73
2021/07/23 01:44:34;;;;;;;1.45;0.65;;;;;;;;;;5015553;28;20014;-73
2021/07/23 01:47:01;;;;;;;1.42;0.63;;;;;;;;;;5006570;28;20080;-74
2021/07/23 01:49:28;;;;;;;1.90;0.40;;;;;;;;;;5015420;28;20029;-74
2021/07/23 01:51:55;;;;;;;1.38;0.30;;;;;;;;;;5010536;28;20446;-73
2021/07/23 01:54:22;;;;;;;2.00;0.40;;;;;;;;;;4996421;28;20045;-74
2021/07/23 01:56:50;;;;;;;0.70;0.30;;;;;;;;;;5013084;28;20045;-73
2021/07/23 01:59:17;;;;;;;1.85;0.43;;;;;;;;;;4997459;28;20566;-74
2021/07/23 02:01:44;;;;;;;1.80;0.20;;;;;;;;;;4995723;28;20121;-74
2021/07/23 02:04:11;;;;;;;1.85;0.30;;;;;;;;;;5014704;28;20530;-74
2021/07/23 02:06:38;;;;;;;2.42;0.43;;;;;;;;;;5011755;28;20034;-74
2021/07/23 02:09:05;;;;;;;2.63;0.60;;;;;;;;;;4998468;28;20547;-73
2021/07/23 02:11:32;;;;;;;1.90;0.50;;;;;;;;;;4998454;28;20037;-72
2021/07/23 02:14:02;;;;;;;1.23;0.60;;;;;;;;;;5013974;28;20076;-74
2021/07/23 02:16:29;;;;;;;3.97;0.85;;;;;;;;;;4994896;28;20423;-73
2021/07/23 02:18:56;;;;;;;0.65;0.50;;;;;;;;;;5014735;28;20034;-74
2021/07/23 02:21:23;;;;;;;1.00;0.30;;;;;;;;;;4995976;28;20030;-74
2021/07/23 02:23:50;;;;;;;1.58;0.40;;;;;;;;;;5014780;28;20438;-74
2021/07/23 02:26:20;;;;;;;0.35;0.20;;;;;;;;;;5012047;28;20022;-74
2021/07/23 02:28:48;;;;;;;1.70;0.60;;;;;;;;;;5010599;28;20395;-74
2021/07/23 02:31:16;;;;;;;1.73;0.30;;;;;;;;;;5012592;28;20018;-74
2021/07/23 02:33:43;;;;;;;1.00;0.25;;;;;;;;;;4996242;28;20026;-74
2021/07/23 02:36:11;;;;;;;1.90;0.85;;;;;;;;;;5012882;28;20038;-73
2021/07/23 02:38:38;;;;;;;2.40;0.50;;;;;;;;;;5013222;28;20033;-73
2021/07/23 02:41:05;;;;;;;1.10;0.68;;;;;;;;;;5001078;28;20169;-73
2021/07/23 02:43:33;;;;;;;0.52;0.30;;;;;;;;;;5014147;28;20387;-72
2021/07/23 02:46:00;;;;;;;2.13;0.57;;;;;;;;;;4995667;28;20046;-72
2021/07/23 02:48:27;;;;;;;0.50;0.30;;;;;;;;;;4995847;28;20089;-72
2021/07/23 02:50:54;;;;;;;1.30;0.50;;;;;;;;;;4993224;28;20036;-73
2021/07/23 02:53:22;;;;;;;1.23;0.50;;;;;;;;;;5012754;28;20467;-72
2021/07/23 02:55:52;;;;;;;1.42;0.60;;;;;;;;;;5014055;28;20036;-72
2021/07/23 02:58:19;;;;;;;0.68;0.40;;;;;;;;;;4994812;28;20033;-73
2021/07/23 03:00:46;;;;;;;0.95;0.47;;;;;;;;;;5006776;28;20038;-70
2021/07/23 03:03:13;;;;;;;2.03;0.38;;;;;;;;;;5008130;28;20022;-69
2021/07/23 03:05:41;;;;;;;1.25;0.30;;;;;;;;;;5009255;28;20507;-70
2021/07/23 03:08:09;;;;;;;1.55;0.30;;;;;;;;;;4993964;28;20179;-71
2021/07/23 03:10:36;;;;;;;1.38;0.60;;;;;;;;;;5011823;28;20025;-72
2021/07/23 03:13:03;;;;;;;1.17;0.43;;;;;;;;;;5009487;28;20026;-71
2021/07/23 03:15:30;;;;;;;1.38;0.43;;;;;;;;;;5006365;28;20069;-71
2021/07/23 03:17:57;;;;;;;1.60;0.30;;;;;;;;;;4991533;28;20033;-71
2021/07/23 03:20:25;;;;;;;2.22;0.50;;;;;;;;;;5009057;28;20621;-71
2021/07/23 03:22:52;;;;;;;1.42;0.40;;;;;;;;;;5007896;28;20030;-71
2021/07/23 03:25:19;;;;;;;1.48;0.50;;;;;;;;;;5009270;28;20037;-71
2021/07/23 03:27:46;;;;;;;1.88;0.30;;;;;;;;;;4992996;28;20049;-70
2021/07/23 03:30:14;;;;;;;2.45;0.82;;;;;;;;;;4994001;28;20067;-71
2021/07/23 03:32:41;;;;;;;1.08;0.40;;;;;;;;;;5009770;28;20482;-70
2021/07/23 03:35:09;;;;;;;3.33;0.80;;;;;;;;;;4990981;28;20030;-70
2021/07/23 03:37:36;;;;;;;2.75;1.00;;;;;;;;;;5001965;28;20030;-71
2021/07/23 03:40:03;;;;;;;1.27;0.30;;;;;;;;;;5000723;28;20032;-72
2021/07/23 03:42:32;;;;;;;2.25;0.80;;;;;;;;;;5006029;28;20430;-70
2021/07/23 03:45:00;;;;;;;1.52;0.55;;;;;;;;;;5008182;28;20556;-70
2021/07/23 03:47:27;;;;;;;3.45;0.80;;;;;;;;;;5008808;28;20037;-70
2021/07/23 03:49:54;;;;;;;2.10;0.55;;;;;;;;;;5006351;28;20033;-69
2021/07/23 03:52:21;;;;;;;1.83;0.50;;;;;;;;;;5008540;28;20379;-71
2021/07/23 03:54:48;;;;;;;1.70;0.45;;;;;;;;;;5007201;28;20036;-70
2021/07/23 03:57:15;;;;;;;0.95;0.45;;;;;;;;;;5005637;28;20030;-71
2021/07/23 03:59:42;;;;;;;2.35;0.82;;;;;;;;;;5008245;28;20029;-69
2021/07/23 04:02:09;;;;;;;2.90;0.95;;;;;;;;;;5007059;28;20034;-71
2021/07/23 04:04:38;;;;;;;3.92;0.73;;;;;;;;;;5008607;28;20026;-71
2021/07/23 04:07:05;;;;;;;1.50;0.60;;;;;;;;;;4990678;28;20546;-71
2021/07/23 04:09:32;;;;;;;2.17;0.52;;;;;;;;;;4991959;28;20119;-71
2021/07/23 04:12:00;;;;;;;2.67;0.50;;;;;;;;;;5002972;28;20118;-71
2021/07/23 04:14:27;;;;;;;1.15;0.40;;;;;;;;;;5004852;28;20022;-71
2021/07/23 04:16:54;;;;;;;2.92;0.52;;;;;;;;;;5003844;28;20046;-71
2021/07/23 04:19:21;;;;;;;2.67;0.70;;;;;;;;;;5007060;28;20038;-72
2021/07/23 04:21:48;;;;;;;2.40;0.40;;;;;;;;;;5010790;28;20506;-69
2021/07/23 04:24:15;;;;;;;1.98;0.73;;;;;;;;;;4989475;28;20087;-69
2021/07/23 04:26:42;;;;;;;2.70;0.60;;;;;;;;;;5008674;28;20491;-71
2021/07/23 04:29:10;;;;;;;3.90;1.00;;;;;;;;;;5006824;28;20022;-68
2021/07/23 04:31:37;;;;;;;2.53;0.40;;;;;;;;;;5004750;28;20489;-70
2021/07/23 04:34:04;;;;;;;1.48;0.45;;;;;;;;;;5004001;28;20156;-71
2021/07/23 04:36:34;;;;;;;2.83;0.65;;;;;;;;;;5006644;28;20033;-71
2021/07/23 04:39:03;;;;;;;2.72;0.52;;;;;;;;;;5007970;28;20022;-72
2021/07/23 04:41:31;;;;;;;1.70;0.30;;;;;;;;;;5005619;28;20017;-70
2021/07/23 04:43:58;;;;;;;1.25;0.40;;;;;;;;;;4991994;28;20471;-71
2021/07/23 04:46:25;;;;;;;4.03;0.85;;;;;;;;;;5002998;28;20030;-70
2021/07/23 04:48:52;;;;;;;1.75;0.47;;;;;;;;;;5000451;28;20024;-71
2021/07/23 04:51:19;;;;;;;1.35;0.65;;;;;;;;;;5005694;28;20034;-74
2021/07/23 04:53:48;;;;;;;2.90;0.50;;;;;;;;;;5006554;28;20037;-71
2021/07/23 04:56:15;;;;;;;2.70;0.55;;;;;;;;;;5008456;28;20042;-70
2021/07/23 04:58:42;;;;;;;2.08;0.60;;;;;;;;;;5012831;28;20026;-70
2021/07/23 05:01:09;;;;;;;4.07;0.70;;;;;;;;;;5009516;28;20026;-71
2021/07/23 05:03:37;;;;;;;1.75;0.63;;;;;;;;;;5011977;28;20487;-70
2021/07/23 05:06:08;;;;;;;1.77;0.68;;;;;;;;;;5003711;28;20064;-71
2021/07/23 05:08:36;;;;;;;1.05;0.55;;;;;;;;;;5010775;28;20050;-72
2021/07/23 05:11:04;;;;;;;2.72;0.95;;;;;;;;;;5009251;28;20050;-71
2021/07/23 05:13:35;;;;;;;4.45;0.88;;;;;;;;;;5010965;28;20057;-71
2021/07/23 05:16:03;;;;;;;2.08;0.60;;;;;;;;;;5005512;28;20058;-71
2021/07/23 05:18:30;;;;;;;2.90;1.20;;;;;;;;;;4995588;28;20029;-72
2021/07/23 05:20:57;;;;;;;3.38;0.90;;;;;;;;;;5011087;28;20080;-71
2021/07/23 05:23:24;;;;;;;2.25;1.10;;;;;;;;;;5010810;28;20390;-71
2021/07/23 05:25:52;;;;;;;2.38;0.98;;;;;;;;;;5012336;28;20510;-71
2021/07/23 05:28:19;;;;;;;3.72;0.80;;;;;;;;;;5013480;28;20022;-71
2021/07/23 05:30:47;;;;;;;1.88;0.95;;;;;;;;;;5009919;28;20018;-71
2021/07/23 05:33:14;;;;;;;5.38;0.95;;;;;;;;;;5009619;28;20057;-71
2021/07/23 05:35:41;;;;;;;2.40;0.98;;;;;;;;;;5012271;28;20042;-71
2021/07/23 05:38:17;;;;;;;9.43;8.43;;;;;;;;;;5012788;28;20033;-73
2021/07/23 05:40:44;;;;;;;7.97;6.72;;;;;;;;;;5012042;28;20030;-73
2021/07/23 05:43:13;;;;;;;38.03;33.97;;;;;;;;;;5009725;28;20026;-74
2021/07/23 05:45:41;;;;;;;41.08;37.25;;;;;;;;;;4999902;28;20475;-73
2021/07/23 05:48:08;;;;;;;30.33;27.52;;;;;;;;;;5010044;28;20022;-73
2021/07/23 05:50:35;;;;;;;12.32;10.68;;;;;;;;;;5005668;28;20019;-73
2021/07/23 05:53:03;;;;;;;4.10;2.90;;;;;;;;;;5011027;28;20021;-73
2021/07/23 05:55:30;;;;;;;5.32;3.40;;;;;;;;;;5010170;28;20026;-73
2021/07/23 05:57:57;;;;;;;3.83;1.40;;;;;;;;;;5011175;28;20387;-74
2021/07/23 06:00:26;;;;;;;3.90;1.60;;;;;;;;;;5012442;28;20033;-73
2021/07/23 06:02:54;;;;;;;2.90;1.33;;;;;;;;;;5003213;28;20041;-70
2021/07/23 06:05:21;;;;;;;3.25;1.02;;;;;;;;;;5009408;28;20033;-70
2021/07/23 06:07:48;;;;;;;3.05;1.10;;;;;;;;;;5010490;28;20385;-71
2021/07/23 06:10:15;;;;;;;2.58;1.33;;;;;;;;;;5011600;28;20402;-70
2021/07/23 06:12:42;;;;;;;2.30;0.85;;;;;;;;;;5010733;28;20168;-71
2021/07/23 06:15:10;;;;;;;5.75;1.13;;;;;;;;;;5004616;28;20041;-71
2021/07/23 06:17:37;;;;;;;3.70;1.20;;;;;;;;;;4992269;28;20030;-70
2021/07/23 06:20:04;;;;;;;3.22;1.80;;;;;;;;;;4991631;28;20579;-71
2021/07/23 06:22:32;;;;;;;3.45;1.50;;;;;;;;;;5007180;28;20101;-71
2021/07/23 06:24:59;;;;;;;4.75;1.83;;;;;;;;;;4996025;28;20376;-71
2021/07/23 06:27:26;;;;;;;4.25;1.30;;;;;;;;;;5011706;28;20022;-70
2021/07/23 06:29:55;;;;;;;2.78;1.10;;;;;;;;;;5010512;28;20037;-71
2021/07/23 06:32:24;;;;;;;2.40;1.20;;;;;;;;;;5009571;28;20514;-71
2021/07/23 06:34:51;;;;;;;3.45;1.65;;;;;;;;;;5009700;28;20018;-71
2021/07/23 06:37:21;;;;;;;5.50;1.08;;;;;;;;;;5008972;28;20044;-71
2021/07/23 06:39:49;;;;;;;2.22;0.90;;;;;;;;;;4993085;28;20490;-70
2021/07/23 06:42:16;;;;;;;8.18;1.95;;;;;;;;;;5012311;28;20022;-71
2021/07/23 06:44:44;;;;;;;4.72;1.70;;;;;;;;;;4992887;28;20029;-71
2021/07/23 06:47:11;;;;;;;2.13;1.15;;;;;;;;;;4991300;28;20037;-70
2021/07/23 06:49:38;;;;;;;4.10;1.00;;;;;;;;;;5010967;28;20029;-71
2021/07/23 06:52:05;;;;;;;3.53;0.93;;;;;;;;;;5012347;28;20561;-69
2021/07/23 06:54:33;;;;;;;3.05;1.00;;;;;;;;;;5010781;28;20033;-70
2021/07/23 06:57:03;;;;;;;4.40;0.98;;;;;;;;;;5010104;28;20120;-70
2021/07/23 06:59:34;;;;;;;3.53;1.02;;;;;;;;;;5008071;28;20030;-70
2021/07/23 07:02:02;;;;;;;2.60;0.70;;;;;;;;;;5006682;28;20482;-71
2021/07/23 07:04:29;;;;;;;3.70;1.35;;;;;;;;;;5006311;28;20485;-69
2021/07/23 07:06:57;;;;;;;3.25;0.80;;;;;;;;;;5008130;28;20038;-70
2021/07/23 07:09:25;;;;;;;2.33;0.77;;;;;;;;;;5010455;28;20050;-70
2021/07/23 07:11:52;;;;;;;3.28;0.90;;;;;;;;;;4991866;28;20436;-71
2021/07/23 07:14:21;;;;;;;2.85;0.90;;;;;;;;;;4995071;28;20060;-70
2021/07/23 07:16:48;;;;;;;3.30;1.10;;;;;;;;;;5007955;28;20037;-70
2021/07/23 07:19:16;;;;;;;3.78;0.90;;;;;;;;;;5008914;28;20018;-70
2021/07/23 07:21:48;;;;;;;6.03;1.02;;;;;;;;;;4990679;28;20042;-70
2021/07/23 07:24:19;;;;;;;3.40;1.27;;;;;;;;;;5003904;28;21263;-70
2021/07/23 07:26:47;;;;;;;5.20;1.50;;;;;;;;;;5005033;28;20118;-70
2021/07/23 07:29:15;;;;;;;2.67;1.67;;;;;;;;;;4992669;28;20056;-71
2021/07/23 07:31:42;;;;;;;2.40;1.38;;;;;;;;;;5012028;28;20033;-71
2021/07/23 07:34:09;;;;;;;5.63;2.08;;;;;;;;;;5010164;28;20068;-71
2021/07/23 07:36:37;;;;;;;5.35;2.00;;;;;;;;;;5012043;28;20064;-71
2021/07/23 07:39:04;;;;;;;5.68;2.10;;;;;;;;;;5009907;28;20026;-70
2021/07/23 07:41:32;;;;;;;7.03;2.88;;;;;;;;;;4992773;28;20108;-70
2021/07/23 07:43:59;;;;;;;6.60;2.63;;;;;;;;;;4994357;28;20076;-70
2021/07/23 07:46:26;;;;;;;6.95;2.63;;;;;;;;;;4992624;28;20394;-71
2021/07/23 07:48:53;;;;;;;11.48;4.75;;;;;;;;;;5011658;28;20198;-71
2021/07/23 07:51:20;;;;;;;8.45;4.28;;;;;;;;;;5007035;28;20112;-71
2021/07/23 07:53:47;;;;;;;5.57;2.90;;;;;;;;;;5004473;28;20017;-71
2021/07/23 07:56:15;;;;;;;7.85;3.85;;;;;;;;;;5005831;28;20438;-71
2021/07/23 07:58:42;;;;;;;7.70;3.38;;;;;;;;;;5011642;28;20030;-72
2021/07/23 08:01:10;;;;;;;8.63;2.22;;;;;;;;;;5010460;28;20027;-71
2021/07/23 08:03:38;;;;;;;6.53;2.60;;;;;;;;;;5011258;28;20052;-72
2021/07/23 08:06:20;;;;;;;5.60;2.50;;;;;;;;;;5006589;28;20041;-71
2021/07/23 08:08:48;;;;;;;5.60;2.65;;;;;;;;;;5001678;28;20057;-72
2021/07/23 08:11:15;;;;;;;9.05;3.33;;;;;;;;;;5010850;28;20030;-71
2021/07/23 08:13:42;;;;;;;8.70;3.83;;;;;;;;;;4993454;28;20030;-73
2021/07/23 08:16:10;;;;;;;12.50;4.60;;;;;;;;;;5006686;28;20549;-72
2021/07/23 08:18:37;;;;;;;7.75;3.67;;;;;;;;;;4993769;28;20041;-72
2021/07/23 08:21:05;;;;;;;9.30;3.72;;;;;;;;;;5006661;28;20033;-71
2021/07/23 08:23:33;;;;;;;9.07;4.22;;;;;;;;;;4993014;28;20491;-72
2021/07/23 08:26:01;;;;;;;10.80;3.30;;;;;;;;;;5006504;28;20032;-71
2021/07/23 08:28:28;;;;;;;9.93;4.53;;;;;;;;;;5010968;28;20033;-72
2021/07/23 08:30:56;;;;;;;11.73;5.53;;;;;;;;;;5008549;28;20045;-72
2021/07/23 08:33:23;;;;;;;10.77;5.82;;;;;;;;;;5003739;28;20030;-71
2021/07/23 08:35:51;;;;;;;16.13;4.97;;;;;;;;;;4992982;28;20116;-71
2021/07/23 08:38:18;;;;;;;11.20;4.97;;;;;;;;;;5010608;28;20021;-71
2021/07/23 08:40:46;;;;;;;15.30;5.70;;;;;;;;;;5008855;28;20080;-70
2021/07/23 08:43:14;;;;;;;8.02;3.83;;;;;;;;;;5009746;28;20386;-71
2021/07/23 08:45:43;;;;;;;9.10;3.42;;;;;;;;;;5008936;28;20084;-71
2021/07/23 08:48:10;;;;;;;9.20;4.05;;;;;;;;;;4988414;28;20023;-70
2021/07/23 08:50:37;;;;;;;5.47;3.22;;;;;;;;;;4991109;28;20121;-71
2021/07/23 08:53:09;;;;;;;7.63;3.08;;;;;;;;;;5004799;28;20423;-70
2021/07/23 08:55:36;;;;;;;5.32;2.83;;;;;;;;;;5009009;28;20053;-73
2021/07/23 08:58:07;;;;;;;6.85;3.03;;;;;;;;;;5006525;28;20807;-72
2021/07/23 09:00:34;;;;;;;7.60;3.30;;;;;;;;;;5008635;28;20080;-72
2021/07/23 09:03:02;;;;;;;8.70;3.63;;;;;;;;;;4990438;28;20438;-70
2021/07/23 09:05:36;;;;;;;7.18;3.55;;;;;;;;;;5006805;28;20550;-72
2021/07/23 09:08:11;;;;;;;8.75;3.50;;;;;;;;;;5007305;28;20481;-71
2021/07/23 09:10:39;;;;;;;11.60;6.10;;;;;;;;;;5007345;28;20021;-71
2021/07/23 09:13:06;;;;;;;10.52;5.07;;;;;;;;;;5011998;28;20029;-71
2021/07/23 09:15:37;;;;;;;13.07;5.25;;;;;;;;;;5016188;28;20091;-72
2021/07/23 09:18:05;;;;;;;7.70;4.07;;;;;;;;;;5014619;28;20025;-71
2021/07/23 09:20:33;;;;;;;10.80;3.78;;;;;;;;;;5029794;28;20132;-70
2021/07/23 09:23:04;;;;;;;10.77;4.85;;;;;;;;;;5029311;28;20087;-70
2021/07/23 09:25:37;;;;;;;7.25;3.45;;;;;;;;;;5029504;28;20490;-69
2021/07/23 09:28:31;;;;;;;9.88;4.43;;;;;;;;;;5009383;28;20557;-70
2021/07/23 09:30:59;;;;;;;9.75;3.60;;;;;;;;;;5019403;28;20406;-72
2021/07/23 09:33:26;;;;;;;8.40;3.50;;;;;;;;;;5030922;28;20099;-72
2021/07/23 09:35:54;;;;;;;8.88;3.10;;;;;;;;;;5027151;28;20034;-71
2021/07/23 09:38:22;;;;;;;6.00;2.78;;;;;;;;;;5009923;28;20079;-71
2021/07/23 09:40:50;;;;;;;6.65;2.67;;;;;;;;;;5013206;28;20061;-71
2021/07/23 09:43:45;;;;;;;11.07;4.20;;;;;;;;;;5002014;28;20080;-71
2021/07/23 09:46:18;;;;;;;9.63;3.92;;;;;;;;;;5029161;28;20033;-71
2021/07/23 09:48:45;;;;;;;10.02;4.28;;;;;;;;;;5025792;28;20049;-71
2021/07/23 09:51:13;;;;;;;9.82;3.85;;;;;;;;;;5032040;28;20061;-71
2021/07/23 09:53:40;;;;;;;6.70;3.00;;;;;;;;;;5033585;28;20445;-70
2021/07/23 09:56:08;;;;;;;6.15;3.03;;;;;;;;;;5017093;28;20034;-71
2021/07/23 09:58:40;;;;;;;6.78;3.20;;;;;;;;;;5015990;28;20029;-71
2021/07/23 10:01:15;;;;;;;8.70;3.55;;;;;;;;;;5011455;28;20030;-72
2021/07/23 10:03:44;;;;;;;12.32;3.67;;;;;;;;;;5029519;28;20025;-71
2021/07/23 10:06:12;;;;;;;15.02;3.20;;;;;;;;;;5024373;28;20037;-72
2021/07/23 10:08:47;;;;;;;6.22;3.20;;;;;;;;;;5008498;28;20098;-71
2021/07/23 10:11:15;;;;;;;7.22;3.38;;;;;;;;;;5018178;28;20052;-72
2021/07/23 10:13:42;;;;;;;6.07;3.40;;;;;;;;;;5016107;28;20098;-73
2021/07/23 10:16:10;;;;;;;10.07;3.58;;;;;;;;;;5014419;28;20029;-72
2021/07/23 10:18:37;;;;;;;7.20;3.30;;;;;;;;;;5011609;28;20029;-70
2021/07/23 10:21:05;;;;;;;8.73;4.18;;;;;;;;;;5027005;28;20022;-70
2021/07/23 10:23:33;;;;;;;8.43;3.35;;;;;;;;;;5031642;28;20550;-71
2021/07/23 10:26:01;;;;;;;9.30;3.10;;;;;;;;;;5031428;28;20044;-70
2021/07/23 10:28:41;;;;;;;7.75;3.00;;;;;;;;;;5033250;28;20033;-70
2021/07/23 10:31:21;;;;;;;6.05;3.05;;;;;;;;;;5015599;28;20505;-71
2021/07/23 10:33:59;;;;;;;8.32;1.73;;;;;;;;;;5012467;28;20025;-69
2021/07/23 10:36:32;;;;;;;6.13;1.83;;;;;;;;;;5030306;28;20083;-70
2021/07/23 10:39:08;;;;;;;5.05;1.92;;;;;;;;;;5001941;28;20037;-69
2021/07/23 10:41:36;;;;;;;7.07;2.05;;;;;;;;;;5016113;28;20048;-70
2021/07/23 10:44:04;;;;;;;9.00;2.28;;;;;;;;;;5030767;28;20505;-70
2021/07/23 10:46:43;;;;;;;4.88;2.00;;;;;;;;;;4993274;28;20030;-72
2021/07/23 10:49:11;;;;;;;5.70;2.15;;;;;;;;;;5020746;28;20045;-72
2021/07/23 10:51:52;;;;;;;3.97;2.20;;;;;;;;;;5032486;28;20029;-71
2021/07/23 10:54:22;;;;;;;5.55;1.95;;;;;;;;;;5030514;28;20394;-71
2021/07/23 10:57:02;;;;;;;4.57;2.10;;;;;;;;;;5032853;28;20029;-71
2021/07/23 10:59:41;;;;;;;4.60;1.80;;;;;;;;;;5014639;28;20128;-72
2021/07/23 11:02:08;;;;;;;4.10;1.52;;;;;;;;;;5030208;28;20038;-71
2021/07/23 11:04:36;;;;;;;4.57;1.33;;;;;;;;;;5032064;28;20072;-71
2021/07/23 11:07:03;;;;;;;3.22;1.15;;;;;;;;;;5013250;28;20037;-70
2021/07/23 11:09:31;;;;;;;2.65;1.20;;;;;;;;;;5029782;28;20103;-71
2021/07/23 11:12:21;;;;;;;4.05;2.17;;;;;;;;;;5014593;28;20378;-71
2021/07/23 11:14:54;;;;;;;1.67;0.80;;;;;;;;;;4998870;28;20073;-71
2021/07/23 11:17:21;;;;;;;2.85;1.10;;;;;;;;;;5010553;28;20040;-72
2021/07/23 11:19:49;;;;;;;2.17;1.10;;;;;;;;;;5014644;28;20056;-71
2021/07/23 11:22:29;;;;;;;4.00;1.23;;;;;;;;;;5014848;28;20026;-70
2021/07/23 11:25:00;;;;;;;2.50;0.80;;;;;;;;;;5026853;28;20032;-70
2021/07/23 11:27:31;;;;;;;2.25;0.70;;;;;;;;;;5015761;28;20029;-70
2021/07/23 11:29:59;;;;;;;2.42;0.60;;;;;;;;;;5000313;28;20490;-72
2021/07/23 11:32:30;;;;;;;1.67;0.60;;;;;;;;;;5014413;28;20033;-70
2021/07/23 11:35:05;;;;;;;4.50;0.70;;;;;;;;;;5006422;28;20040;-68
2021/07/23 11:37:31;;;;;;;;;;;;;;;;;;4992679;28;20037;-70
2021/07/23 11:39:59;;;;;;;1.75;1.00;;;;;;;;;;5011445;28;19917;-71
2021/07/23 11:42:28;;;;;;;1.60;0.68;;;;;;;;;;5011859;28;20489;-70
2021/07/23 11:44:55;;;;;;;2.72;0.82;;;;;;;;;;5008069;28;20580;-70
2021/07/23 11:47:33;;;;;;;1.45;0.55;;;;;;;;;;5008255;28;20425;-70
2021/07/23 11:50:07;;;;;;;2.50;0.60;;;;;;;;;;5007170;28;20052;-71
2021/07/23 11:52:34;;;;;;;3.75;1.17;;;;;;;;;;5007952;28;20073;-71
2021/07/23 11:55:04;;;;;;;2.13;0.70;;;;;;;;;;5009154;28;20030;-70
2021/07/23 11:57:32;;;;;;;1.90;0.60;;;;;;;;;;5009316;28;20037;-69
2021/07/23 11:59:59;;;;;;;1.35;0.93;;;;;;;;;;5008469;28;20029;-70
2021/07/23 12:02:27;;;;;;;2.15;0.70;;;;;;;;;;5007876;28;20022;-70
2021/07/23 12:05:04;;;;;;;3.22;1.00;;;;;;;;;;5009367;28;20533;-70
2021/07/23 12:07:31;;;;;;;1.80;0.70;;;;;;;;;;5007454;28;20045;-70
2021/07/23 12:09:59;;;;;;;2.15;0.60;;;;;;;;;;5008794;28;20056;-71
2021/07/23 12:12:27;;;;;;;1.73;0.70;;;;;;;;;;5008218;28;20037;-70
2021/07/23 12:14:54;;;;;;;1.52;0.60;;;;;;;;;;4992561;28;20114;-70
2021/07/23 12:17:21;;;;;;;1.58;0.65;;;;;;;;;;5008859;28;20030;-70
2021/07/23 12:19:55;;;;;;;2.28;0.77;;;;;;;;;;5010516;28;20022;-70
2021/07/23 12:22:22;;;;;;;2.30;0.90;;;;;;;;;;5009916;28;20058;-70
2021/07/23 12:24:50;;;;;;;1.13;0.50;;;;;;;;;;5010444;28;20271;-71
2021/07/23 12:27:24;;;;;;;2.60;0.68;;;;;;;;;;4991991;28;20390;-71
2021/07/23 12:29:52;;;;;;;2.10;0.55;;;;;;;;;;5011409;28;20022;-70
2021/07/23 12:32:22;;;;;;;1.15;0.57;;;;;;;;;;5010067;28;20091;-70
2021/07/23 12:34:56;;;;;;;1.88;0.57;;;;;;;;;;5012165;28;20049;-70
2021/07/23 12:37:24;;;;;;;2.70;0.70;;;;;;;;;;5008824;28;20022;-70
2021/07/23 12:39:51;;;;;;;2.47;0.60;;;;;;;;;;5012011;28;20416;-71
2021/07/23 12:42:19;;;;;;;5.25;0.40;;;;;;;;;;4993961;28;20034;-71
2021/07/23 12:44:46;;;;;;;2.35;0.50;;;;;;;;;;5010911;28;20135;-70
2021/07/23 12:47:17;;;;;;;1.70;0.57;;;;;;;;;;5007469;28;20030;-70
2021/07/23 12:49:44;;;;;;;2.00;0.50;;;;;;;;;;5011478;28;20363;-72
2021/07/23 12:52:11;;;;;;;1.10;0.30;;;;;;;;;;5010366;28;20113;-71
2021/07/23 12:54:42;;;;;;;0.90;0.40;;;;;;;;;;5011933;28;20022;-71
2021/07/23 12:57:16;;;;;;;2.05;0.40;;;;;;;;;;5009913;28;20026;-71
2021/07/23 12:59:43;;;;;;;1.08;0.63;;;;;;;;;;4993742;28;20033;-72
2021/07/23 13:02:11;;;;;;;1.40;0.40;;;;;;;;;;5008689;28;20100;-71
2021/07/23 13:04:38;;;;;;;3.22;0.82;;;;;;;;;;5009391;28;20026;-71
2021/07/23 13:07:08;;;;;;;3.33;0.50;;;;;;;;;;4993882;28;20029;-71
2021/07/23 13:09:42;;;;;;;1.55;0.50;;;;;;;;;;5010812;28;20112;-71
2021/07/23 13:12:09;;;;;;;1.83;0.60;;;;;;;;;;5009978;28;20033;-71
2021/07/23 13:14:37;;;;;;;1.70;0.50;;;;;;;;;;5006645;28;20112;-70
2021/07/23 13:17:04;;;;;;;1.10;0.50;;;;;;;;;;5008632;28;20057;-70
2021/07/23 13:19:32;;;;;;;2.35;0.60;;;;;;;;;;5015471;28;20033;-71
2021/07/23 13:22:00;;;;;;;1.13;0.43;;;;;;;;;;5010534;28;20093;-71
2021/07/23 13:24:28;;;;;;;1.80;0.50;;;;;;;;;;4995673;28;20037;-71
2021/07/23 13:26:55;;;;;;;4.40;0.60;;;;;;;;;;5004630;28;20014;-71
2021/07/23 13:29:22;;;;;;;1.38;0.40;;;;;;;;;;5015315;28;20041;-71
2021/07/23 13:31:53;;;;;;;1.95;0.50;;;;;;;;;;5001796;28;20501;-71
2021/07/23 13:34:21;;;;;;;3.03;0.50;;;;;;;;;;5015344;28;20048;-71
2021/07/23 13:37:07;;;;;;;3.50;0.50;;;;;;;;;;5013483;28;20035;-71
2021/07/23 13:39:53;;;;;;;2.08;0.40;;;;;;;;;;5015763;28;20030;-71
2021/07/23 13:42:22;;;;;;;3.38;0.98;;;;;;;;;;5010620;28;20382;-70
2021/07/23 13:44:49;;;;;;;2.22;0.70;;;;;;;;;;5015498;28;20498;-71
2021/07/23 13:47:16;;;;;;;1.13;0.52;;;;;;;;;;5013376;28;20034;-70
2021/07/23 13:49:43;;;;;;;3.40;0.52;;;;;;;;;;5014520;28;20033;-71
2021/07/23 13:52:10;;;;;;;2.22;0.65;;;;;;;;;;5013509;28;20387;-71
2021/07/23 13:54:38;;;;;;;1.80;0.60;;;;;;;;;;5014287;28;20080;-70
2021/07/23 13:57:05;;;;;;;5.20;1.02;;;;;;;;;;5011837;28;20095;-71
2021/07/23 13:59:33;;;;;;;2.55;1.00;;;;;;;;;;5014950;28;20057;-71
2021/07/23 14:02:00;;;;;;;3.28;1.50;;;;;;;;;;5012304;28;20026;-71
2021/07/23 14:04:27;;;;;;;3.28;1.98;;;;;;;;;;4996833;28;20025;-71
2021/07/23 14:06:54;;;;;;;5.20;1.13;;;;;;;;;;5011881;28;20359;-70
2021/07/23 14:09:21;;;;;;;2.72;1.35;;;;;;;;;;4996599;28;20495;-70
2021/07/23 14:11:50;;;;;;;4.85;2.08;;;;;;;;;;5013140;28;20034;-71
2021/07/23 14:14:17;;;;;;;4.00;2.25;;;;;;;;;;4994965;28;20026;-70
2021/07/23 14:16:44;;;;;;;5.65;2.92;;;;;;;;;;5005128;28;20372;-72
2021/07/23 14:19:11;;;;;;;5.88;3.17;;;;;;;;;;5014383;28;20029;-70
2021/07/23 14:21:38;;;;;;;4.57;3.08;;;;;;;;;;4994421;28;20025;-71
2021/07/23 14:24:06;;;;;;;4.78;2.00;;;;;;;;;;5014351;28;20022;-72
2021/07/23 14:26:33;;;;;;;3.97;2.20;;;;;;;;;;5011234;28;20030;-71
2021/07/23 14:29:00;;;;;;;4.03;2.17;;;;;;;;;;5011168;28;20125;-71
2021/07/23 14:31:27;;;;;;;5.57;2.38;;;;;;;;;;5010896;28;20517;-72
2021/07/23 14:33:54;;;;;;;4.05;2.17;;;;;;;;;;5013235;28;20030;-71
2021/07/23 14:36:21;;;;;;;4.60;1.77;;;;;;;;;;5011631;28;21716;-71
2021/07/23 14:38:51;;;;;;;5.05;1.38;;;;;;;;;;5010443;28;20383;-70
2021/07/23 14:41:19;;;;;;;3.45;1.52;;;;;;;;;;5010411;28;20113;-71
2021/07/23 14:43:46;;;;;;;4.22;1.40;;;;;;;;;;5012930;28;20018;-71
2021/07/23 14:46:13;;;;;;;3.25;1.27;;;;;;;;;;5010477;28;20025;-71
2021/07/23 14:48:40;;;;;;;4.18;1.63;;;;;;;;;;5012767;28;20021;-71
2021/07/23 14:51:08;;;;;;;1.92;0.95;;;;;;;;;;5009588;28;20026;-72